createdAt,value
2019-03-28T00:00:22.921Z,15.2
2019-03-28T00:01:23.015Z,15.8
2019-03-28T00:02:23.119Z,16
2019-03-28T00:03:23.241Z,18.299999
2019-03-28T00:04:23.359Z,14.9
2019-03-28T00:05:23.509Z,16.1
2019-03-28T00:06:23.451Z,14.2
2019-03-28T00:07:24.280Z,12.8
2019-03-28T00:08:23.681Z,14.8
2019-03-28T00:09:23.785Z,14.3
2019-03-28T00:10:23.884Z,13.2
2019-03-28T00:11:24.206Z,16.4
2019-03-28T00:12:24.132Z,16.200001
2019-03-28T00:13:24.254Z,18.5
2019-03-28T00:14:24.355Z,16.9
2019-03-28T00:15:24.440Z,17
2019-03-28T00:16:24.547Z,18.1
2019-03-28T00:17:24.665Z,14
2019-03-28T00:18:24.768Z,14.4
2019-03-28T00:19:24.866Z,15.1
2019-03-28T00:20:24.986Z,16.200001
2019-03-28T00:21:25.107Z,16.9
2019-03-28T00:22:25.207Z,16.5
2019-03-28T00:23:25.354Z,14.5
2019-03-28T00:24:25.483Z,14.6
2019-03-28T00:25:25.602Z,16
2019-03-28T00:26:30.289Z,16.9
2019-03-28T00:27:26.775Z,15.2
2019-03-28T00:28:25.966Z,16.299999
2019-03-28T00:29:25.908Z,14.7
2019-03-28T00:30:26.041Z,16.9
2019-03-28T00:31:26.149Z,16
2019-03-28T00:32:26.368Z,15.5
2019-03-28T00:33:26.412Z,15.5
2019-03-28T00:34:26.519Z,16.4
2019-03-28T00:35:26.628Z,13.7
2019-03-28T00:36:26.741Z,15.2
2019-03-28T00:37:26.848Z,16.700001
2019-03-28T00:38:26.973Z,15.2
2019-03-28T00:39:27.064Z,16.200001
2019-03-28T00:40:27.225Z,18.200001
2019-03-28T00:41:27.225Z,16.6
2019-03-28T00:42:27.191Z,15.5
2019-03-28T00:43:27.315Z,16.4
2019-03-28T00:44:27.437Z,16
2019-03-28T00:45:27.600Z,19
2019-03-28T00:46:27.669Z,17.200001
2019-03-28T00:47:27.788Z,15.3
2019-03-28T00:48:28.016Z,16.799999
2019-03-28T00:49:27.893Z,17
2019-03-28T00:50:28.003Z,16.799999
2019-03-28T00:51:28.120Z,20.6
2019-03-28T00:52:28.233Z,17.200001
2019-03-28T00:53:28.358Z,17.5
2019-03-28T00:54:28.453Z,16.9
2019-03-28T00:55:28.567Z,18.5
2019-03-28T00:56:28.753Z,19.200001
2019-03-28T00:57:28.687Z,18.299999
2019-03-28T00:58:28.836Z,18.1
2019-03-28T00:59:28.950Z,17.6
2019-03-28T01:00:29.060Z,16
2019-03-28T01:01:29.175Z,16.5
2019-03-28T01:02:29.297Z,17.200001
2019-03-28T01:03:29.434Z,17.4
2019-03-28T01:04:29.537Z,17.299999
2019-03-28T01:05:29.641Z,17.5
2019-03-28T01:06:29.747Z,15.8
2019-03-28T01:07:29.847Z,17.5
2019-03-28T01:08:29.989Z,20.5
2019-03-28T01:09:30.104Z,16.200001
2019-03-28T01:10:30.203Z,17.9
2019-03-28T01:11:30.319Z,17
2019-03-28T01:12:30.529Z,15.7
2019-03-28T01:13:30.586Z,16.1
2019-03-28T01:14:30.512Z,17
2019-03-28T01:15:30.614Z,16.700001
2019-03-28T01:16:30.713Z,19.1
2019-03-28T01:17:30.822Z,19
2019-03-28T01:18:31.978Z,18.5
2019-03-28T01:19:30.912Z,18.299999
2019-03-28T01:20:31.010Z,16.1
2019-03-28T01:21:31.141Z,17.9
2019-03-28T01:22:31.244Z,18.799999
2019-03-28T01:23:31.486Z,18.6
2019-03-28T01:24:31.431Z,18.6
2019-03-28T01:25:31.532Z,20.299999
2019-03-28T01:26:31.627Z,16.700001
2019-03-28T01:27:31.724Z,19
2019-03-28T01:28:31.862Z,19.5
2019-03-28T01:29:32.266Z,20.299999
2019-03-28T01:30:32.054Z,20.200001
2019-03-28T01:31:32.158Z,18.6
2019-03-28T01:32:32.295Z,19.799999
2019-03-28T01:33:32.416Z,20.4
2019-03-28T01:34:33.136Z,20.9
2019-03-28T01:35:32.617Z,20.200001
2019-03-28T01:36:32.721Z,20.4
2019-03-28T01:37:32.815Z,17.5
2019-03-28T01:38:32.953Z,21
2019-03-28T01:39:33.052Z,17
2019-03-28T01:40:33.157Z,20.1
2019-03-28T01:41:33.265Z,20.9
2019-03-28T01:42:33.362Z,20.9
2019-03-28T01:43:33.499Z,22.299999
2019-03-28T01:44:33.613Z,18.1
2019-03-28T01:45:33.703Z,20.9
2019-03-28T01:46:33.814Z,18.6
2019-03-28T01:47:33.941Z,20.4
2019-03-28T01:48:34.100Z,16.5
2019-03-28T01:49:34.203Z,19.4
2019-03-28T01:50:34.319Z,19
2019-03-28T01:51:34.450Z,21.200001
2019-03-28T01:52:34.566Z,18.700001
2019-03-28T01:53:34.709Z,19.299999
2019-03-28T01:54:34.824Z,18.700001
2019-03-28T01:55:34.935Z,20.1
2019-03-28T01:56:35.034Z,18.5
2019-03-28T01:57:35.161Z,21
2019-03-28T01:58:35.285Z,18.6
2019-03-28T01:59:35.419Z,21.700001
2019-03-28T02:00:35.557Z,18.299999
2019-03-28T02:01:35.666Z,19.9
2019-03-28T02:02:35.826Z,20
2019-03-28T02:03:35.799Z,19.299999
2019-03-28T02:04:35.920Z,19.6
2019-03-28T02:05:36.035Z,20.4
2019-03-28T02:06:36.167Z,19.6
2019-03-28T02:07:36.267Z,19
2019-03-28T02:08:36.395Z,21.5
2019-03-28T02:09:36.494Z,19.5
2019-03-28T02:10:36.598Z,21.299999
2019-03-28T02:11:36.692Z,18.299999
2019-03-28T02:12:36.793Z,18.200001
2019-03-28T02:13:36.953Z,18.5
2019-03-28T02:14:37.044Z,19.299999
2019-03-28T02:15:37.177Z,20.6
2019-03-28T02:16:37.261Z,17.5
2019-03-28T02:17:37.475Z,21.6
2019-03-28T02:18:37.505Z,20.6
2019-03-28T02:19:37.608Z,20.700001
2019-03-28T02:20:37.713Z,20
2019-03-28T02:21:37.849Z,18.4
2019-03-28T02:22:37.974Z,18.1
2019-03-28T02:23:38.133Z,19.6
2019-03-28T02:24:38.072Z,18
2019-03-28T02:25:38.175Z,20.1
2019-03-28T02:26:38.273Z,20.1
2019-03-28T02:27:38.373Z,19.5
2019-03-28T02:28:38.544Z,19.6
2019-03-28T02:29:38.477Z,18.6
2019-03-28T02:30:38.651Z,21.1
2019-03-28T02:31:38.584Z,17.6
2019-03-28T02:32:38.687Z,16
2019-03-28T02:33:38.795Z,17.1
2019-03-28T02:34:38.897Z,18.1
2019-03-28T02:35:39.000Z,16.9
2019-03-28T02:36:39.098Z,20.799999
2019-03-28T02:37:39.197Z,16.9
2019-03-28T02:38:39.336Z,17.200001
2019-03-28T02:39:39.438Z,18.6
2019-03-28T02:40:39.531Z,18.9
2019-03-28T02:41:39.629Z,17.5
2019-03-28T02:42:39.753Z,19
2019-03-28T02:43:39.884Z,19.4
2019-03-28T02:44:40.018Z,20
2019-03-28T02:45:40.117Z,19.9
2019-03-28T02:46:40.226Z,17.9
2019-03-28T02:47:40.329Z,18.200001
2019-03-28T02:48:40.467Z,18.1
2019-03-28T02:49:40.570Z,19.200001
2019-03-28T02:50:40.685Z,17.700001
2019-03-28T02:51:40.801Z,18.6
2019-03-28T02:52:40.907Z,17.799999
2019-03-28T02:53:41.032Z,17.799999
2019-03-28T02:54:41.198Z,19
2019-03-28T02:55:41.156Z,15.5
2019-03-28T02:56:41.855Z,18.200001
2019-03-28T02:57:42.449Z,19.299999
2019-03-28T02:58:42.434Z,17.6
2019-03-28T02:59:41.541Z,20
2019-03-28T03:00:41.654Z,19.299999
2019-03-28T03:01:41.739Z,16.4
2019-03-28T03:02:41.831Z,17.9
2019-03-28T03:03:41.939Z,17.4
2019-03-28T03:04:42.047Z,17.4
2019-03-28T03:05:42.160Z,19.4
2019-03-28T03:06:42.255Z,17.4
2019-03-28T03:07:42.358Z,16.4
2019-03-28T03:08:42.477Z,18.6
2019-03-28T03:09:42.601Z,20.299999
2019-03-28T03:10:43.733Z,16.799999
2019-03-28T03:11:43.806Z,20
2019-03-28T03:12:42.890Z,19.6
2019-03-28T03:13:42.987Z,16.5
2019-03-28T03:14:43.111Z,18.9
2019-03-28T03:15:43.217Z,16.5
2019-03-28T03:16:43.351Z,17
2019-03-28T03:17:43.453Z,19.4
2019-03-28T03:18:43.563Z,17.1
2019-03-28T03:19:43.710Z,16.9
2019-03-28T03:20:43.925Z,19.6
2019-03-28T03:21:43.901Z,19.6
2019-03-28T03:22:44.004Z,17.700001
2019-03-28T03:23:44.112Z,17.4
2019-03-28T03:24:44.312Z,19.1
2019-03-28T03:25:44.334Z,18.200001
2019-03-28T03:26:44.438Z,19
2019-03-28T03:27:56.599Z,16.4
2019-03-28T03:28:45.636Z,18.5
2019-03-28T03:29:44.747Z,21.9
2019-03-28T03:30:44.841Z,16.700001
2019-03-28T03:31:44.963Z,19
2019-03-28T03:32:45.051Z,17.700001
2019-03-28T03:33:45.137Z,19.700001
2019-03-28T03:34:45.262Z,18.200001
2019-03-28T03:35:45.366Z,20.299999
2019-03-28T03:36:45.476Z,18.299999
2019-03-28T03:37:45.577Z,17.6
2019-03-28T03:38:45.668Z,18.1
2019-03-28T03:39:45.812Z,20.799999
2019-03-28T03:40:45.903Z,17.299999
2019-03-28T03:41:46.010Z,20.1
2019-03-28T03:42:46.113Z,19
2019-03-28T03:43:46.217Z,18.200001
2019-03-28T03:44:46.350Z,20.5
2019-03-28T03:45:46.461Z,18.1
2019-03-28T03:46:46.559Z,18.4
2019-03-28T03:47:46.649Z,17.1
2019-03-28T03:48:46.751Z,19.9
2019-03-28T03:49:46.869Z,18.5
2019-03-28T03:50:46.974Z,21
2019-03-28T03:51:47.075Z,18.6
2019-03-28T03:52:47.165Z,18.200001
2019-03-28T03:53:47.274Z,19.1
2019-03-28T03:54:47.409Z,19
2019-03-28T03:55:47.499Z,20
2019-03-28T03:56:47.622Z,21.5
2019-03-28T03:57:47.716Z,21.799999
2019-03-28T03:58:47.838Z,15.4
2019-03-28T03:59:47.936Z,19
2019-03-28T04:00:48.063Z,18.5
2019-03-28T04:01:48.183Z,18.9
2019-03-28T04:02:48.281Z,20.6
2019-03-28T04:03:48.385Z,19.6
2019-03-28T04:04:48.505Z,19.799999
2019-03-28T04:05:48.603Z,21.200001
2019-03-28T04:06:48.717Z,19.299999
2019-03-28T04:07:48.842Z,19.9
2019-03-28T04:08:48.946Z,19.5
2019-03-28T04:09:49.063Z,20.799999
2019-03-28T04:10:49.181Z,21.799999
2019-03-28T04:11:49.287Z,20.799999
2019-03-28T04:12:49.433Z,19.5
2019-03-28T04:13:49.545Z,21.299999
2019-03-28T04:14:50.344Z,19.5
2019-03-28T04:15:49.773Z,22.9
2019-03-28T04:16:49.876Z,21.700001
2019-03-28T04:17:49.983Z,22.5
2019-03-28T04:18:50.091Z,23.200001
2019-03-28T04:19:50.220Z,21.200001
2019-03-28T04:20:51.097Z,24
2019-03-28T04:21:51.410Z,21.6
2019-03-28T04:22:50.515Z,23.299999
2019-03-28T04:23:50.616Z,20.4
2019-03-28T04:24:50.747Z,23.700001
2019-03-28T04:25:50.865Z,23.799999
2019-03-28T04:26:50.987Z,23.9
2019-03-28T04:27:51.099Z,24.1
2019-03-28T04:28:51.219Z,22.6
2019-03-28T04:29:51.346Z,22.6
2019-03-28T04:30:51.446Z,22.5
2019-03-28T04:31:51.582Z,28.1
2019-03-28T04:32:51.679Z,23.4
2019-03-28T04:33:51.771Z,26.4
2019-03-28T04:34:51.925Z,22.200001
2019-03-28T04:35:52.129Z,25.5
2019-03-28T04:36:52.061Z,26.299999
2019-03-28T04:37:52.207Z,26.299999
2019-03-28T04:38:52.334Z,26.6
2019-03-28T04:39:52.488Z,24.799999
2019-03-28T04:40:52.599Z,26.5
2019-03-28T04:41:52.713Z,22.9
2019-03-28T04:42:52.810Z,26.4
2019-03-28T04:43:55.761Z,28
2019-03-28T04:44:54.089Z,26.6
2019-03-28T04:45:53.203Z,26.799999
2019-03-28T04:46:53.402Z,28.200001
2019-03-28T04:47:53.454Z,22.700001
2019-03-28T04:48:53.651Z,26.1
2019-03-28T04:49:53.622Z,26.6
2019-03-28T04:50:53.725Z,23.6
2019-03-28T04:51:53.832Z,25
2019-03-28T04:52:53.925Z,26.1
2019-03-28T04:53:56.276Z,26.200001
2019-03-28T04:54:55.404Z,27.6
2019-03-28T04:55:54.259Z,26.200001
2019-03-28T04:56:54.373Z,25.799999
2019-03-28T04:57:55.379Z,27.5
2019-03-28T04:58:54.588Z,29.4
2019-03-28T04:59:54.711Z,24.1
2019-03-28T05:00:54.844Z,27.6
2019-03-28T05:02:02.773Z,26
2019-03-28T05:02:56.001Z,28.200001
2019-03-28T05:03:55.146Z,28.9
2019-03-28T05:04:55.293Z,26.700001
2019-03-28T05:05:55.398Z,29.200001
2019-03-28T05:06:55.494Z,27
2019-03-28T05:07:55.602Z,27.6
2019-03-28T05:08:55.773Z,25.5
2019-03-28T05:09:56.016Z,25.299999
2019-03-28T05:10:55.996Z,25.4
2019-03-28T05:11:56.108Z,27.299999
2019-03-28T05:12:56.209Z,30.1
2019-03-28T05:13:56.318Z,27.4
2019-03-28T05:14:56.475Z,27.4
2019-03-28T05:15:57.277Z,24.9
2019-03-28T05:16:56.546Z,26.9
2019-03-28T05:17:56.657Z,24.799999
2019-03-28T05:18:57.480Z,29.6
2019-03-28T05:19:56.944Z,31.1
2019-03-28T05:20:56.886Z,25.6
2019-03-28T05:21:56.983Z,26.799999
2019-03-28T05:22:57.087Z,26.1
2019-03-28T05:23:57.196Z,30.6
2019-03-28T05:24:57.356Z,25.9
2019-03-28T05:25:57.487Z,26.299999
2019-03-28T05:26:57.617Z,28.799999
2019-03-28T05:27:57.721Z,24.4
2019-03-28T05:28:58.872Z,25.5
2019-03-28T05:29:58.929Z,29.4
2019-03-28T05:30:58.034Z,28.9
2019-03-28T05:31:58.169Z,26
2019-03-28T05:32:58.311Z,29
2019-03-28T05:33:58.456Z,25.700001
2019-03-28T05:34:58.642Z,25.1
2019-03-28T05:35:58.727Z,25.5
2019-03-28T05:36:58.709Z,28.299999
2019-03-28T05:37:58.873Z,26.700001
2019-03-28T05:38:58.851Z,27.6
2019-03-28T05:39:59.029Z,26.200001
2019-03-28T05:40:59.027Z,29
2019-03-28T05:41:59.028Z,28.299999
2019-03-28T05:42:59.116Z,26.4
2019-03-28T05:43:59.097Z,27
2019-03-28T05:44:59.272Z,28.9
2019-03-28T05:45:59.245Z,25.299999
2019-03-28T05:46:59.401Z,24.700001
2019-03-28T05:48:00.370Z,27.6
2019-03-28T05:48:59.580Z,29.6
2019-03-28T05:49:59.750Z,26.700001
2019-03-28T05:50:59.733Z,29.700001
2019-03-28T05:51:59.802Z,30.799999
2019-03-28T05:52:59.846Z,26.9
2019-03-28T05:53:59.909Z,27.200001
2019-03-28T05:55:00.009Z,28.6
2019-03-28T05:56:00.063Z,25.200001
2019-03-28T05:57:00.098Z,24
2019-03-28T05:58:00.144Z,29.6
2019-03-28T05:59:10.072Z,28.200001
2019-03-28T06:00:01.279Z,27.6
2019-03-28T06:01:00.346Z,25.4
2019-03-28T06:02:00.391Z,24.9
2019-03-28T06:03:00.436Z,26.799999
2019-03-28T06:04:00.486Z,30.299999
2019-03-28T06:05:00.948Z,28.799999
2019-03-28T06:06:00.617Z,31.200001
2019-03-28T06:07:00.680Z,29.5
2019-03-28T06:08:00.719Z,25.5
2019-03-28T06:09:00.755Z,24.9
2019-03-28T06:10:00.842Z,28.5
2019-03-28T06:11:00.895Z,27.1
2019-03-28T06:12:00.924Z,25.6
2019-03-28T06:13:01.988Z,25.1
2019-03-28T06:14:01.050Z,28.700001
2019-03-28T06:15:01.126Z,27.200001
2019-03-28T06:16:01.182Z,27.799999
2019-03-28T06:17:01.287Z,25.5
2019-03-28T06:18:01.364Z,25.1
2019-03-28T06:19:01.407Z,31.299999
2019-03-28T06:20:01.485Z,26.700001
2019-03-28T06:21:01.511Z,27.4
2019-03-28T06:22:01.562Z,27.700001
2019-03-28T06:23:01.616Z,27.799999
2019-03-28T06:24:02.659Z,24.799999
2019-03-28T06:25:05.513Z,28.299999
2019-03-28T06:26:02.781Z,28.9
2019-03-28T06:27:01.814Z,31.799999
2019-03-28T06:28:01.866Z,28.700001
2019-03-28T06:29:01.905Z,28.5
2019-03-28T06:30:02.512Z,28.4
2019-03-28T06:31:02.099Z,27.799999
2019-03-28T06:32:02.520Z,30.200001
2019-03-28T06:33:02.186Z,29.799999
2019-03-28T06:34:02.229Z,28.700001
2019-03-28T06:35:02.300Z,30.200001
2019-03-28T06:36:02.430Z,30.9
2019-03-28T06:37:02.402Z,31.5
2019-03-28T06:38:02.431Z,28.6
2019-03-28T06:39:02.531Z,31.1
2019-03-28T06:40:02.756Z,29.1
2019-03-28T06:41:02.634Z,32.400002
2019-03-28T06:42:02.696Z,30.9
2019-03-28T06:43:02.744Z,34.799999
2019-03-28T06:44:02.788Z,32.299999
2019-03-28T06:45:03.774Z,31.1
2019-03-28T06:46:03.877Z,33.599998
2019-03-28T06:47:02.921Z,30.9
2019-03-28T06:48:02.969Z,31.200001
2019-03-28T06:49:03.025Z,31.9
2019-03-28T06:50:03.090Z,30.799999
2019-03-28T06:51:03.152Z,30.1
2019-03-28T06:52:03.266Z,31.700001
2019-03-28T06:53:03.310Z,31.299999
2019-03-28T06:54:03.406Z,32.799999
2019-03-28T06:55:03.519Z,30.9
2019-03-28T06:56:03.567Z,31.299999
2019-03-28T06:57:03.621Z,33.599998
2019-03-28T06:58:03.678Z,29.200001
2019-03-28T06:59:03.729Z,29.799999
2019-03-28T07:00:03.814Z,30.9
2019-03-28T07:01:03.851Z,33.299999
2019-03-28T07:02:03.925Z,30.1
2019-03-28T07:03:03.981Z,32.799999
2019-03-28T07:04:04.466Z,35.599998
2019-03-28T07:05:04.121Z,32.299999
2019-03-28T07:06:04.160Z,29.1
2019-03-28T07:07:04.202Z,33.299999
2019-03-28T07:08:04.275Z,29.5
2019-03-28T07:09:04.364Z,35.099998
2019-03-28T07:10:04.430Z,30.700001
2019-03-28T07:11:04.464Z,32.299999
2019-03-28T07:12:04.505Z,31.9
2019-03-28T07:13:04.558Z,29.6
2019-03-28T07:14:04.609Z,28.799999
2019-03-28T07:15:04.658Z,26.799999
2019-03-28T07:16:04.721Z,30
2019-03-28T07:17:04.770Z,33.700001
2019-03-28T07:18:04.821Z,32.400002
2019-03-28T07:19:04.870Z,31.1
2019-03-28T07:20:04.943Z,32.599998
2019-03-28T07:21:04.976Z,31.700001
2019-03-28T07:22:05.023Z,29.4
2019-03-28T07:23:05.105Z,31.4
2019-03-28T07:24:05.159Z,28.5
2019-03-28T07:25:05.227Z,29.6
2019-03-28T07:26:05.286Z,30.700001
2019-03-28T07:27:05.346Z,29.799999
2019-03-28T07:28:06.435Z,31.700001
2019-03-28T07:29:06.470Z,31.9
2019-03-28T07:30:05.550Z,32.400002
2019-03-28T07:31:05.674Z,29.6
2019-03-28T07:32:05.767Z,32.700001
2019-03-28T07:33:05.808Z,29.9
2019-03-28T07:34:05.866Z,30.200001
2019-03-28T07:35:05.946Z,30.9
2019-03-28T07:36:05.997Z,32
2019-03-28T07:37:06.084Z,30.4
2019-03-28T07:38:06.131Z,28.4
2019-03-28T07:39:06.182Z,29
2019-03-28T07:40:06.261Z,28
2019-03-28T07:41:06.303Z,26.700001
2019-03-28T07:42:06.388Z,29.700001
2019-03-28T07:43:06.444Z,27.9
2019-03-28T07:44:06.497Z,28.4
2019-03-28T07:45:06.612Z,28.200001
2019-03-28T07:46:06.657Z,28.4
2019-03-28T07:47:06.726Z,30.5
2019-03-28T07:48:06.793Z,27.6
2019-03-28T07:49:06.832Z,25.5
2019-03-28T07:50:06.923Z,28.9
2019-03-28T07:51:06.962Z,26.6
2019-03-28T07:52:07.051Z,25.1
2019-03-28T07:53:07.100Z,26.9
2019-03-28T07:54:07.189Z,25.4
2019-03-28T07:55:07.266Z,28.200001
2019-03-28T07:56:07.318Z,24.700001
2019-03-28T07:57:07.414Z,27.700001
2019-03-28T07:58:07.819Z,27.4
2019-03-28T07:59:08.571Z,29.6
2019-03-28T08:00:07.630Z,30
2019-03-28T08:01:07.672Z,32.5
2019-03-28T08:02:07.724Z,29.299999
2019-03-28T08:03:07.791Z,29.799999
2019-03-28T08:04:07.834Z,28.299999
2019-03-28T08:05:07.940Z,28.200001
2019-03-28T08:06:07.983Z,29.299999
2019-03-28T08:07:08.024Z,26.9
2019-03-28T08:08:08.080Z,28.700001
2019-03-28T08:09:08.131Z,27.5
2019-03-28T08:10:08.260Z,25.5
2019-03-28T08:11:08.632Z,26.4
2019-03-28T08:12:21.668Z,29.4
2019-03-28T08:13:09.435Z,29.200001
2019-03-28T08:14:08.478Z,30.799999
2019-03-28T08:15:08.646Z,26.799999
2019-03-28T08:16:08.526Z,25.299999
2019-03-28T08:17:08.574Z,26
2019-03-28T08:18:08.616Z,25.5
2019-03-28T08:19:08.649Z,25.4
2019-03-28T08:20:08.739Z,25.700001
2019-03-28T08:21:08.815Z,24.5
2019-03-28T08:22:08.867Z,26.4
2019-03-28T08:23:08.911Z,25
2019-03-28T08:24:08.959Z,21.700001
2019-03-28T08:25:11.601Z,22.299999
2019-03-28T08:26:10.103Z,19.9
2019-03-28T08:27:09.160Z,18.299999
2019-03-28T08:28:09.210Z,23.1
2019-03-28T08:29:09.272Z,19.4
2019-03-28T08:30:17.896Z,19.700001
2019-03-28T08:31:10.503Z,21
2019-03-28T08:32:09.545Z,20.299999
2019-03-28T08:33:09.631Z,20.200001
2019-03-28T08:34:09.669Z,20.6
2019-03-28T08:35:10.751Z,22.6
2019-03-28T08:36:09.767Z,22.5
2019-03-28T08:37:09.856Z,19.9
2019-03-28T08:38:10.425Z,18.4
2019-03-28T08:39:09.944Z,18.6
2019-03-28T08:40:10.001Z,22.9
2019-03-28T08:41:10.149Z,19.9
2019-03-28T08:42:10.191Z,23.5
2019-03-28T08:43:10.404Z,21.6
2019-03-28T08:44:10.742Z,22.5
2019-03-28T08:45:10.456Z,17.9
2019-03-28T08:46:10.534Z,20.700001
2019-03-28T08:47:10.551Z,19.6
2019-03-28T08:48:10.694Z,22.299999
2019-03-28T08:49:10.697Z,19.6
2019-03-28T08:50:10.741Z,20.1
2019-03-28T08:51:10.820Z,23
2019-03-28T08:52:11.790Z,19.1
2019-03-28T08:53:11.870Z,16.799999
2019-03-28T08:54:10.958Z,18.700001
2019-03-28T08:55:11.962Z,16.799999
2019-03-28T08:56:11.040Z,18.799999
2019-03-28T08:57:11.061Z,18.700001
2019-03-28T08:58:11.092Z,20
2019-03-28T08:59:11.190Z,18.9
2019-03-28T09:00:11.312Z,22
2019-03-28T09:01:11.241Z,18.9
2019-03-28T09:02:11.304Z,18.700001
2019-03-28T09:03:11.386Z,19.200001
2019-03-28T09:04:11.486Z,20.5
2019-03-28T09:05:11.490Z,18.5
2019-03-28T09:06:11.724Z,18.4
2019-03-28T09:07:11.635Z,17.299999
2019-03-28T09:08:11.674Z,20.6
2019-03-28T09:09:11.776Z,21.799999
2019-03-28T09:10:11.907Z,20.799999
2019-03-28T09:11:11.994Z,19.700001
2019-03-28T09:12:12.035Z,22
2019-03-28T09:13:12.079Z,18.799999
2019-03-28T09:14:12.172Z,18.9
2019-03-28T09:15:12.455Z,17.6
2019-03-28T09:16:12.364Z,20.700001
2019-03-28T09:17:12.651Z,18.700001
2019-03-28T09:18:12.550Z,16.700001
2019-03-28T09:19:12.605Z,18
2019-03-28T09:20:12.668Z,18.6
2019-03-28T09:21:12.756Z,15.6
2019-03-28T09:22:12.930Z,15.8
2019-03-28T09:23:13.036Z,17.5
2019-03-28T09:24:12.994Z,18.700001
2019-03-28T09:25:13.172Z,15.9
2019-03-28T09:26:13.193Z,18.299999
2019-03-28T09:27:13.328Z,16.4
2019-03-28T09:28:13.385Z,16.4
2019-03-28T09:29:13.433Z,16.9
2019-03-28T09:30:13.531Z,16.9
2019-03-28T09:31:19.556Z,17.299999
2019-03-28T09:32:14.605Z,16.9
2019-03-28T09:33:13.647Z,14.5
2019-03-28T09:34:13.797Z,15.5
2019-03-28T09:35:13.914Z,18.200001
2019-03-28T09:36:13.899Z,18.6
2019-03-28T09:37:13.951Z,14
2019-03-28T09:38:13.993Z,16.200001
2019-03-28T09:39:14.039Z,14
2019-03-28T09:40:14.126Z,13.4
2019-03-28T09:41:14.207Z,15.3
2019-03-28T09:42:14.260Z,14.8
2019-03-28T09:43:15.314Z,15.8
2019-03-28T09:44:14.355Z,13.6
2019-03-28T09:45:14.457Z,11.5
2019-03-28T09:46:14.561Z,13.9
2019-03-28T09:47:14.624Z,12.6
2019-03-28T09:48:14.664Z,9.6
2019-03-28T09:49:14.711Z,8.9
2019-03-28T09:50:14.755Z,7.4
2019-03-28T09:51:14.823Z,9.3
2019-03-28T09:52:14.870Z,9.4
2019-03-28T09:53:14.919Z,13.5
2019-03-28T09:54:14.960Z,9.7
2019-03-28T09:55:15.006Z,7.4
2019-03-28T09:56:15.081Z,6.6
2019-03-28T09:57:15.142Z,5.2
2019-03-28T09:58:15.227Z,5.8
2019-03-28T09:59:15.271Z,6.1
2019-03-28T10:00:15.317Z,6.3
2019-03-28T10:01:15.386Z,7.9
2019-03-28T10:02:15.453Z,7.4
2019-03-28T10:03:15.500Z,10.3
2019-03-28T10:04:15.585Z,8.3
2019-03-28T10:05:15.637Z,9.9
2019-03-28T10:06:15.717Z,9.3
2019-03-28T10:07:15.765Z,11.5
2019-03-28T10:08:16.794Z,9.7
2019-03-28T10:09:15.836Z,10.3
2019-03-28T10:10:15.919Z,12.6
2019-03-28T10:11:15.987Z,10.2
2019-03-28T10:12:16.030Z,12.3
2019-03-28T10:13:16.077Z,9.3
2019-03-28T10:14:16.125Z,10.1
2019-03-28T10:15:16.165Z,11.2
2019-03-28T10:16:16.240Z,8.4
2019-03-28T10:17:16.285Z,8.9
2019-03-28T10:18:16.335Z,9.7
2019-03-28T10:19:16.384Z,9.2
2019-03-28T10:20:16.409Z,8.7
2019-03-28T10:21:16.492Z,9.5
2019-03-28T10:22:16.559Z,9.6
2019-03-28T10:23:16.606Z,11.7
2019-03-28T10:24:16.697Z,9.6
2019-03-28T10:25:16.756Z,9.5
2019-03-28T10:26:16.827Z,8.3
2019-03-28T10:27:19.126Z,12
2019-03-28T10:28:18.026Z,9.4
2019-03-28T10:29:17.006Z,9.6
2019-03-28T10:30:17.041Z,10.8
2019-03-28T10:31:17.151Z,11.1
2019-03-28T10:32:17.102Z,9.6
2019-03-28T10:33:17.158Z,10.6
2019-03-28T10:34:17.231Z,9.2
2019-03-28T10:35:17.277Z,8.6
2019-03-28T10:36:17.366Z,6.9
2019-03-28T10:37:17.410Z,10.7
2019-03-28T10:38:17.450Z,9.3
2019-03-28T10:39:17.504Z,7.5
2019-03-28T10:40:17.585Z,9.4
2019-03-28T10:41:17.678Z,9.7
2019-03-28T10:42:17.760Z,10
2019-03-28T10:43:17.802Z,9.3
2019-03-28T10:44:17.847Z,7.3
2019-03-28T10:45:17.895Z,8.8
2019-03-28T10:46:17.957Z,9
2019-03-28T10:47:18.048Z,8
2019-03-28T10:48:18.193Z,9.9
2019-03-28T10:49:18.153Z,8.9
2019-03-28T10:50:18.246Z,9
2019-03-28T10:51:18.350Z,7.8
2019-03-28T10:52:18.389Z,10.3
2019-03-28T10:53:18.425Z,8.1
2019-03-28T10:54:20.265Z,7.7
2019-03-28T10:55:19.472Z,8.6
2019-03-28T10:56:21.719Z,9.1
2019-03-28T10:57:29.668Z,9.2
2019-03-28T10:58:19.824Z,7.5
2019-03-28T10:59:23.412Z,9.1
2019-03-28T11:00:24.187Z,8.3
2019-03-28T11:01:32.672Z,7.5
2019-03-28T11:02:19.751Z,7.6
2019-03-28T11:03:18.798Z,8.6
2019-03-28T11:04:18.834Z,7.5
2019-03-28T11:05:18.911Z,7.3
2019-03-28T11:06:18.989Z,7.4
2019-03-28T11:07:19.042Z,7.5
2019-03-28T11:08:19.100Z,8.2
2019-03-28T11:09:19.152Z,6.2
2019-03-28T11:10:19.208Z,7.4
2019-03-28T11:11:19.272Z,7.8
2019-03-28T11:12:19.363Z,7.3
2019-03-28T11:13:19.402Z,7.4
2019-03-28T11:14:19.455Z,7.5
2019-03-28T11:15:19.523Z,6
2019-03-28T11:16:19.594Z,8.2
2019-03-28T11:17:19.669Z,7.3
2019-03-28T11:18:19.736Z,8.6
2019-03-28T11:19:19.780Z,6.9
2019-03-28T11:20:19.829Z,6.6
2019-03-28T11:21:19.921Z,7.9
2019-03-28T11:22:19.998Z,7.8
2019-03-28T11:23:20.053Z,6.7
2019-03-28T11:24:20.159Z,6.2
2019-03-28T11:25:20.282Z,8.9
2019-03-28T11:26:20.346Z,6.1
2019-03-28T11:27:20.403Z,7.9
2019-03-28T11:28:23.279Z,6.9
2019-03-28T11:29:21.539Z,6.9
2019-03-28T11:30:20.575Z,6.8
2019-03-28T11:31:20.643Z,7.2
2019-03-28T11:32:20.698Z,9.2
2019-03-28T11:33:20.860Z,7.7
2019-03-28T11:34:20.793Z,6.5
2019-03-28T11:35:20.837Z,7.2
2019-03-28T11:36:20.909Z,8.3
2019-03-28T11:37:26.210Z,8.7
2019-03-28T11:38:21.939Z,6.5
2019-03-28T11:39:21.146Z,9.4
2019-03-28T11:40:24.279Z,6.9
2019-03-28T11:41:22.085Z,7.1
2019-03-28T11:42:21.207Z,7.6
2019-03-28T11:43:21.176Z,6.3
2019-03-28T11:44:21.254Z,7.8
2019-03-28T11:45:21.318Z,9
2019-03-28T11:46:21.396Z,6.7
2019-03-28T11:47:22.297Z,8.6
2019-03-28T11:48:22.486Z,6.5
2019-03-28T11:49:21.522Z,8.3
2019-03-28T11:50:21.558Z,8
2019-03-28T11:51:21.637Z,7
2019-03-28T11:52:21.691Z,6.5
2019-03-28T11:53:21.743Z,7.5
2019-03-28T11:54:21.803Z,7.6
2019-03-28T11:55:21.851Z,8.6
2019-03-28T11:56:21.921Z,8.6
2019-03-28T11:57:22.014Z,7.7
2019-03-28T11:58:22.183Z,7.7
2019-03-28T11:59:22.067Z,7.3
2019-03-28T12:00:22.121Z,7
2019-03-28T12:01:22.173Z,8.1
2019-03-28T12:02:25.176Z,7.1
2019-03-28T12:03:23.270Z,9.2
2019-03-28T12:04:22.312Z,6.6
2019-03-28T12:05:22.360Z,6.8
2019-03-28T12:06:22.422Z,7.7
2019-03-28T12:07:22.464Z,7.5
2019-03-28T12:08:22.518Z,9.8
2019-03-28T12:09:22.568Z,8.4
2019-03-28T12:10:22.613Z,8
2019-03-28T12:11:22.993Z,6.6
2019-03-28T12:12:22.712Z,7.7
2019-03-28T12:13:22.767Z,6.7
2019-03-28T12:14:22.871Z,7.5
2019-03-28T12:15:22.919Z,8.7
2019-03-28T12:16:22.990Z,6.8
2019-03-28T12:17:23.035Z,6.8
2019-03-28T12:18:25.043Z,8.2
2019-03-28T12:19:24.152Z,6.3
2019-03-28T12:20:23.201Z,6.3
2019-03-28T12:21:23.278Z,6.8
2019-03-28T12:22:23.309Z,7.7
2019-03-28T12:23:23.348Z,5.9
2019-03-28T12:24:23.408Z,5.5
2019-03-28T12:25:23.462Z,5.2
2019-03-28T12:26:23.527Z,6.9
2019-03-28T12:27:23.578Z,8.9
2019-03-28T12:28:23.631Z,8.2
2019-03-28T12:29:23.895Z,7.8
2019-03-28T12:30:23.705Z,6.2
2019-03-28T12:31:23.789Z,6.1
2019-03-28T12:32:23.821Z,7.3
2019-03-28T12:33:23.872Z,8
2019-03-28T12:34:23.915Z,8.3
2019-03-28T12:35:23.966Z,7.1
2019-03-28T12:36:24.032Z,5.8
2019-03-28T12:37:24.073Z,7.8
2019-03-28T12:38:24.135Z,6.3
2019-03-28T12:39:24.189Z,8.1
2019-03-28T12:40:24.244Z,7.2
2019-03-28T12:41:24.325Z,7.2
2019-03-28T12:42:24.359Z,8.1
2019-03-28T12:43:24.398Z,6.7
2019-03-28T12:44:24.443Z,7.2
2019-03-28T12:45:24.505Z,7.1
2019-03-28T12:46:25.714Z,7.3
2019-03-28T12:47:25.738Z,7.1
2019-03-28T12:48:24.798Z,8.1
2019-03-28T12:49:24.868Z,6.9
2019-03-28T12:50:24.935Z,6.1
2019-03-28T12:51:25.034Z,6.3
2019-03-28T12:52:25.092Z,5
2019-03-28T12:53:25.139Z,5.3
2019-03-28T12:54:25.200Z,7.2
2019-03-28T12:55:25.419Z,6.1